createdAt,value
2023-02-15T00:02:51.618Z,59.95
2023-02-15T00:07:54.264Z,59.72
2023-02-15T00:12:55.870Z,59.54
2023-02-15T00:17:58.534Z,58.48
2023-02-15T00:23:00.170Z,57.85
2023-02-15T00:28:01.916Z,58.93
2023-02-15T00:33:03.730Z,56.34
2023-02-15T00:38:05.323Z,58.22
2023-02-15T00:43:06.937Z,58.84
2023-02-15T00:48:08.544Z,59.14
2023-02-15T00:53:10.170Z,61.46
2023-02-15T00:58:12.865Z,59.34
2023-02-15T01:03:16.745Z,58.92
2023-02-15T01:08:18.541Z,59.73
2023-02-15T01:13:20.763Z,61.13
2023-02-15T01:18:23.020Z,60.05
2023-02-15T01:23:24.661Z,59.55
2023-02-15T01:28:26.341Z,59.76
2023-02-15T01:33:28.009Z,61.14
2023-02-15T01:38:29.673Z,58.44
2023-02-15T01:43:45.923Z,58.62
2023-02-15T01:48:57.911Z,61.44
2023-02-15T01:54:05.690Z,57.33
2023-02-15T01:59:12.802Z,59.52
2023-02-15T04:53:24.947Z,55.61
2023-02-15T04:58:26.607Z,56.06
2023-02-15T05:03:28.262Z,55.35
2023-02-15T05:08:30.274Z,56.09
2023-02-15T05:13:31.915Z,57.24
2023-02-15T05:18:33.718Z,57.14
2023-02-15T05:23:35.397Z,57.36
2023-02-15T05:28:38.953Z,55.61
2023-02-15T05:33:41.816Z,55.45
2023-02-15T05:38:43.611Z,55.88
2023-02-15T05:43:45.224Z,56.90
2023-02-15T05:48:46.828Z,59.88
2023-02-15T05:53:48.490Z,59.57
2023-02-15T05:58:50.106Z,61.79
2023-02-15T06:03:52.103Z,59.04
2023-02-15T06:08:53.786Z,56.21
2023-02-15T06:13:55.371Z,55.92
2023-02-15T06:18:57.081Z,54.83
2023-02-15T06:23:58.831Z,56.47
2023-02-15T06:29:00.448Z,55.28
2023-02-15T06:34:02.140Z,55.22
2023-02-15T06:39:04.623Z,54.86
2023-02-15T06:44:06.422Z,55.13
2023-02-15T06:49:08.102Z,56.33
2023-02-15T06:54:09.783Z,55.85
2023-02-15T06:59:11.435Z,56.06
2023-02-15T07:04:13.113Z,55.60
2023-02-15T07:09:14.721Z,54.01
2023-02-15T07:14:16.580Z,55.68
2023-02-15T07:19:18.221Z,56.58
2023-02-15T07:24:20.031Z,56.57
2023-02-15T07:29:21.656Z,57.42
2023-02-15T07:34:23.351Z,57.20
2023-02-15T07:39:24.939Z,55.74
2023-02-15T07:44:26.595Z,57.84
2023-02-15T07:49:28.225Z,55.94
2023-02-15T07:54:29.916Z,55.77
2023-02-15T07:59:31.538Z,57.13
2023-02-15T08:04:33.169Z,59.17
2023-02-15T08:09:34.798Z,55.00
2023-02-15T08:14:36.605Z,54.40
2023-02-15T08:19:38.413Z,56.84
2023-02-15T08:24:40.331Z,56.83
2023-02-15T08:29:43.244Z,55.08
2023-02-15T08:34:45.003Z,55.10
2023-02-15T08:39:46.977Z,55.92
2023-02-15T08:44:51.493Z,57.07
2023-02-15T08:49:53.586Z,54.94
2023-02-15T08:54:56.045Z,56.68
2023-02-15T08:59:57.721Z,57.50
2023-02-15T09:04:59.333Z,58.40
2023-02-15T09:10:00.948Z,60.81
2023-02-15T09:15:02.537Z,58.73
2023-02-15T09:20:04.621Z,59.41
2023-02-15T09:25:06.605Z,59.06
2023-02-15T09:30:08.508Z,58.68
2023-02-15T09:35:10.284Z,57.17
2023-02-15T09:40:15.873Z,61.60
2023-02-15T09:45:26.465Z,57.88
2023-02-15T09:50:48.200Z,59.46
2023-02-15T09:56:05.561Z,62.90
2023-02-15T10:01:31.156Z,59.63
2023-02-15T10:07:23.537Z,62.43
2023-02-15T10:12:47.341Z,62.36
2023-02-15T10:18:07.565Z,61.21
2023-02-15T10:23:47.704Z,59.36
2023-02-15T10:29:08.074Z,56.89
2023-02-15T10:34:25.305Z,60.65
2023-02-15T10:39:30.754Z,56.56
2023-02-15T10:44:42.899Z,58.21
2023-02-15T10:50:16.705Z,57.73
2023-02-15T10:55:55.494Z,60.19
2023-02-15T11:06:32.600Z,63.47
2023-02-15T11:11:40.409Z,67.61
2023-02-15T11:16:50.040Z,62.80
2023-02-15T11:21:56.354Z,63.29
2023-02-15T11:27:15.978Z,64.37
2023-02-15T11:32:28.719Z,61.84
2023-02-15T11:37:38.304Z,63.49
2023-02-15T11:42:41.223Z,62.15
2023-02-15T11:47:42.889Z,61.85
2023-02-15T11:52:44.947Z,63.11
2023-02-15T11:57:55.155Z,62.46
2023-02-15T12:02:58.953Z,61.16
2023-02-15T12:08:11.793Z,63.86
2023-02-15T12:13:19.159Z,60.94
2023-02-15T12:18:45.300Z,60.98
2023-02-15T12:23:53.349Z,60.37
2023-02-15T12:28:58.973Z,61.42
2023-02-15T12:34:03.520Z,59.00
2023-02-15T12:39:14.508Z,59.94
2023-02-15T12:44:16.052Z,59.73
2023-02-15T12:49:20.855Z,60.80
2023-02-15T12:54:39.574Z,59.98
2023-02-15T12:59:51.973Z,61.24
2023-02-15T13:04:54.547Z,61.21
2023-02-15T13:09:56.300Z,61.70
2023-02-15T13:14:58.819Z,59.04
2023-02-15T13:20:10.806Z,61.31
2023-02-15T13:25:20.868Z,60.27
2023-02-15T13:30:36.475Z,60.28
2023-02-15T13:35:55.413Z,59.57
2023-02-15T13:41:10.758Z,59.26
2023-02-15T13:46:35.076Z,59.92
2023-02-15T13:51:51.567Z,59.19
2023-02-15T13:57:00.996Z,58.21
2023-02-15T14:02:31.384Z,60.90
2023-02-15T14:08:03.997Z,60.52
2023-02-15T14:13:43.997Z,58.97
2023-02-15T14:19:09.859Z,58.39
2023-02-15T14:24:26.553Z,59.32
2023-02-15T14:29:36.961Z,58.21
2023-02-15T14:35:00.281Z,58.16
2023-02-15T14:40:28.657Z,58.05
2023-02-15T14:45:46.777Z,59.94
2023-02-15T14:50:49.290Z,58.77
2023-02-15T14:56:08.423Z,60.82
2023-02-15T15:01:11.846Z,61.16
2023-02-15T15:06:30.051Z,58.68
2023-02-15T15:11:42.861Z,61.69
2023-02-15T15:16:50.882Z,60.31
2023-02-15T15:21:53.921Z,62.16
2023-02-15T15:27:33.850Z,62.20
2023-02-15T15:32:36.384Z,59.63
2023-02-15T15:38:18.001Z,60.70
2023-02-15T15:43:37.217Z,62.03
2023-02-15T15:48:41.694Z,59.22
2023-02-15T15:53:49.445Z,58.92
2023-02-15T15:58:59.005Z,57.46
2023-02-15T16:04:00.831Z,56.33
2023-02-15T16:09:20.660Z,58.10
2023-02-15T16:14:38.480Z,58.82
2023-02-15T16:19:43.270Z,56.87
2023-02-15T16:25:11.927Z,56.16
2023-02-15T16:30:32.102Z,55.34
2023-02-15T16:35:35.050Z,56.57
2023-02-15T16:40:53.732Z,56.63
2023-02-15T16:46:04.322Z,55.63
2023-02-15T16:51:06.461Z,58.20
2023-02-15T16:56:08.309Z,57.32
2023-02-15T17:01:13.029Z,57.04
2023-02-15T17:06:30.483Z,56.95
2023-02-15T17:11:43.310Z,58.14
2023-02-15T17:16:59.522Z,58.31
2023-02-15T17:22:10.161Z,58.98
2023-02-15T17:27:22.971Z,59.53
2023-02-15T17:32:37.448Z,58.98
2023-02-15T17:37:39.165Z,58.07
2023-02-15T17:42:40.917Z,57.93
2023-02-15T17:47:43.780Z,59.60
2023-02-15T17:52:45.591Z,56.88
2023-02-15T17:57:47.600Z,56.81
2023-02-15T18:03:07.828Z,55.64
2023-02-15T18:08:32.046Z,57.50
2023-02-15T18:13:33.661Z,58.12
2023-02-15T18:18:35.403Z,57.30
2023-02-15T18:23:37.086Z,58.28
2023-02-15T18:28:38.731Z,58.25
2023-02-15T18:33:49.950Z,57.66
2023-02-15T18:38:53.523Z,59.41
2023-02-15T18:43:56.275Z,60.92
2023-02-15T18:48:58.236Z,59.69
2023-02-15T18:54:00.754Z,63.80
2023-02-15T18:59:02.445Z,62.40
2023-02-15T19:04:04.065Z,63.68
2023-02-15T19:09:05.848Z,62.92
2023-02-15T19:14:22.882Z,62.55
2023-02-15T19:19:25.214Z,63.43
2023-02-15T19:24:38.842Z,62.68
2023-02-15T19:29:40.532Z,61.23
2023-02-15T19:34:42.173Z,62.13
2023-02-15T19:39:43.975Z,61.53
2023-02-15T19:44:45.618Z,62.16
2023-02-15T19:49:47.553Z,60.71
2023-02-15T19:54:50.031Z,63.22
2023-02-15T19:59:51.876Z,60.25
2023-02-15T20:04:53.623Z,62.04
2023-02-15T20:09:55.828Z,61.82
2023-02-15T20:14:58.502Z,64.51
2023-02-15T20:20:00.143Z,61.74
2023-02-15T20:25:02.430Z,62.13
2023-02-15T20:30:04.849Z,61.78
2023-02-15T20:35:08.910Z,61.13
2023-02-15T20:40:22.749Z,61.66
2023-02-15T20:45:27.136Z,66.76
2023-02-15T20:50:31.812Z,66.64
2023-02-15T20:55:33.951Z,66.67
2023-02-15T21:00:36.405Z,68.37
2023-02-15T21:05:38.619Z,63.86
2023-02-15T21:10:45.285Z,65.92
2023-02-15T21:15:47.417Z,63.80
2023-02-15T21:20:52.655Z,70.24
2023-02-15T21:25:56.535Z,65.05
2023-02-15T21:30:59.253Z,65.50
2023-02-15T21:36:02.616Z,65.23
2023-02-15T21:41:24.362Z,65.67
2023-02-15T21:46:45.019Z,62.48
2023-02-15T21:52:05.184Z,63.91
2023-02-15T21:57:09.523Z,64.25
2023-02-15T22:02:31.329Z,63.96
2023-02-15T22:07:33.006Z,61.80
2023-02-15T22:12:34.814Z,64.00
2023-02-15T22:17:36.584Z,61.99
2023-02-15T22:22:38.191Z,61.25
2023-02-15T22:27:41.308Z,64.03
2023-02-15T22:32:42.938Z,62.33
2023-02-15T22:37:44.666Z,66.54
2023-02-15T22:42:49.706Z,64.60
2023-02-15T22:47:53.528Z,64.01
2023-02-15T22:52:55.633Z,61.74
2023-02-15T22:57:58.256Z,61.41
2023-02-15T23:03:00.739Z,60.21
2023-02-15T23:08:02.324Z,60.81
2023-02-15T23:13:24.938Z,61.82
2023-02-15T23:18:31.429Z,63.95
2023-02-15T23:23:40.817Z,62.13
2023-02-15T23:28:42.631Z,62.92
2023-02-15T23:33:44.466Z,65.27
2023-02-15T23:38:46.106Z,64.59
2023-02-15T23:43:57.349Z,64.53
2023-02-15T23:48:59.054Z,64.09
2023-02-15T23:54:00.666Z,63.33
2023-02-15T23:59:02.917Z,64.23
